createdAt,value
2022-11-28T00:01:01.251Z,39.4
2022-11-28T00:06:01.175Z,40.4
2022-11-28T00:11:01.328Z,40.8
2022-11-28T00:16:01.581Z,39.6
2022-11-28T00:21:01.568Z,39.5
2022-11-28T00:26:01.652Z,40.0
2022-11-28T00:31:01.091Z,38.4
2022-11-28T00:36:01.543Z,39.2
2022-11-28T00:41:01.206Z,40.2
2022-11-28T00:46:01.328Z,40.0
2022-11-28T00:51:01.230Z,39.6
2022-11-28T00:56:01.551Z,40.2
2022-11-28T01:01:02.017Z,40.4
2022-11-28T01:06:01.651Z,40.8
2022-11-28T01:11:01.536Z,40.3
2022-11-28T01:16:01.516Z,38.8
2022-11-28T01:21:01.511Z,39.0
2022-11-28T01:26:01.616Z,38.1
2022-11-28T01:31:01.511Z,37.6
2022-11-28T01:36:01.495Z,37.7
2022-11-28T01:41:01.473Z,37.0
2022-11-28T01:46:01.677Z,35.2
2022-11-28T01:51:01.789Z,34.7
2022-11-28T01:56:01.505Z,34.4
2022-11-28T02:01:01.538Z,33.2
2022-11-28T02:06:01.634Z,32.6
2022-11-28T02:11:01.461Z,33.4
2022-11-28T02:16:01.393Z,34.6
2022-11-28T02:26:01.486Z,35.0
2022-11-28T02:31:01.359Z,36.4
2022-11-28T02:36:01.707Z,36.2
2022-11-28T02:41:01.299Z,35.9
2022-11-28T02:51:01.883Z,35.6
2022-11-28T02:56:01.251Z,34.6
2022-11-28T03:02:01.281Z,33.4
2022-11-28T03:07:01.353Z,31.8
2022-11-28T03:12:01.091Z,30.9
2022-11-28T03:17:16.866Z,31.3
2022-11-28T03:22:01.244Z,31.7
2022-11-28T03:27:01.663Z,33.1
2022-11-28T03:32:01.179Z,32.5
2022-11-28T03:42:01.847Z,30.6
2022-11-28T03:52:01.900Z,30.4
2022-11-28T03:57:01.593Z,31.5
2022-11-28T04:02:01.450Z,32.0
2022-11-28T04:08:01.599Z,32.9
2022-11-28T04:13:01.550Z,33.5
2022-11-28T04:18:01.514Z,32.4
2022-11-28T04:23:01.503Z,31.5
2022-11-28T04:28:01.642Z,30.5
2022-11-28T04:33:01.521Z,30.4
2022-11-28T04:38:01.536Z,27.6
2022-11-28T04:43:01.526Z,30.4
2022-11-28T04:48:01.657Z,31.3
2022-11-28T04:53:02.057Z,32.8
2022-11-28T04:58:01.624Z,33.3
2022-11-28T05:03:01.515Z,36.1
2022-11-28T05:08:01.815Z,34.2
2022-11-28T05:13:01.519Z,33.7
2022-11-28T05:18:01.577Z,35.1
2022-11-28T05:23:01.525Z,34.2
2022-11-28T05:28:01.641Z,34.1
2022-11-28T05:33:01.514Z,35.0
2022-11-28T05:38:01.534Z,36.6
2022-11-28T05:43:01.221Z,34.8
2022-11-28T05:48:01.654Z,36.8
2022-11-28T05:53:01.568Z,35.5
2022-11-28T05:58:01.845Z,36.4
2022-11-28T06:03:01.979Z,35.2
2022-11-28T06:08:01.760Z,34.6
2022-11-28T06:13:01.550Z,33.2
2022-11-28T06:18:01.466Z,34.8
2022-11-28T06:23:01.495Z,33.2
2022-11-28T06:28:01.601Z,35.1
2022-11-28T06:33:01.477Z,37.3
2022-11-28T06:38:10.208Z,39.8
2022-11-28T06:43:01.426Z,39.2
2022-11-28T06:48:01.537Z,40.9
2022-11-28T06:53:01.985Z,39.6
2022-11-28T06:58:02.708Z,37.9
2022-11-28T07:03:01.520Z,36.4
2022-11-28T07:08:01.658Z,38.8
2022-11-28T07:13:05.307Z,37.0
2022-11-28T07:18:01.453Z,37.8
2022-11-28T07:23:01.468Z,38.5
2022-11-28T07:28:01.573Z,37.9
2022-11-28T07:33:01.530Z,36.4
2022-11-28T07:38:01.500Z,37.7
2022-11-28T07:43:01.944Z,36.7
2022-11-28T07:48:01.609Z,35.7
2022-11-28T07:53:05.687Z,35.3
2022-11-28T07:58:01.521Z,32.7
2022-11-28T08:03:01.433Z,31.9
2022-11-28T08:08:01.453Z,32.7
2022-11-28T08:13:01.827Z,33.2
2022-11-28T08:18:01.301Z,32.7
2022-11-28T08:23:01.250Z,33.3
2022-11-28T08:28:01.256Z,32.5
2022-11-28T08:33:01.431Z,31.8
2022-11-28T08:38:02.120Z,30.9
2022-11-28T08:43:01.484Z,31.1
2022-11-28T08:48:01.267Z,31.8
2022-11-28T08:53:07.171Z,30.7
2022-11-28T08:58:01.269Z,29.3
2022-11-28T09:03:01.647Z,28.5
2022-11-28T09:08:02.531Z,29.2
2022-11-28T09:18:01.559Z,30.4
2022-11-28T09:23:01.576Z,29.8
2022-11-28T09:28:01.551Z,29.1
2022-11-28T09:33:01.538Z,28.0
2022-11-28T09:38:01.574Z,26.1
2022-11-28T09:43:01.548Z,26.4
2022-11-28T09:48:01.279Z,26.2
2022-11-28T09:53:01.685Z,25.8
2022-11-28T10:03:01.446Z,26.1
2022-11-28T10:08:02.087Z,24.8
2022-11-28T10:13:17.173Z,26.0
2022-11-28T10:18:01.597Z,27.2
2022-11-28T10:23:01.538Z,29.0
2022-11-28T10:28:01.564Z,31.0
2022-11-28T10:33:01.531Z,32.8
2022-11-28T10:38:01.664Z,34.6
2022-11-28T10:43:10.784Z,36.1
2022-11-28T10:48:23.133Z,34.1
2022-11-28T10:53:01.518Z,32.4
2022-11-28T10:58:01.558Z,30.7
2022-11-28T11:03:01.558Z,28.6
2022-11-28T11:13:01.525Z,28.5
2022-11-28T11:18:01.703Z,30.3
2022-11-28T11:23:01.376Z,32.5
2022-11-28T11:28:01.321Z,34.4
2022-11-28T11:34:01.328Z,35.0
2022-11-28T11:39:01.398Z,37.4
2022-11-28T11:44:01.358Z,37.3
2022-11-28T11:49:01.382Z,38.3
2022-11-28T11:54:01.310Z,40.0
2022-11-28T11:59:01.411Z,39.4
2022-11-28T12:09:01.112Z,38.2
2022-11-28T12:14:01.434Z,36.2
2022-11-28T12:19:01.007Z,32.5
2022-11-28T12:24:01.505Z,33.4
2022-11-28T12:29:11.067Z,33.3
2022-11-28T12:34:01.033Z,34.1
2022-11-28T12:39:01.172Z,34.5
2022-11-28T12:44:01.375Z,35.4
2022-11-28T12:49:01.394Z,33.3
2022-11-28T12:54:01.044Z,32.8
2022-11-28T12:59:01.101Z,32.4
2022-11-28T13:04:01.362Z,32.7
2022-11-28T13:09:01.273Z,34.0
2022-11-28T13:14:01.174Z,36.1
2022-11-28T13:19:01.489Z,37.4
2022-11-28T13:24:06.783Z,38.0
2022-11-28T13:29:01.391Z,40.0
2022-11-28T13:34:01.506Z,39.0
2022-11-28T13:39:12.229Z,38.7
2022-11-28T13:44:01.331Z,38.4
2022-11-28T13:49:20.316Z,44.3
2022-11-28T13:54:01.245Z,51.5
2022-11-28T14:00:05.482Z,58.1
2022-11-28T14:05:00.998Z,60.4
2022-11-28T14:10:01.701Z,60.9
2022-11-28T14:15:07.505Z,56.8
2022-11-28T14:20:01.515Z,49.8
2022-11-28T14:25:01.250Z,43.6
2022-11-28T14:30:02.279Z,42.4
2022-11-28T14:35:01.068Z,40.6
2022-11-28T14:40:01.580Z,39.1
2022-11-28T14:45:24.179Z,37.8
2022-11-28T14:50:01.158Z,38.9
2022-11-28T15:00:06.604Z,39.9
2022-11-28T15:05:01.187Z,42.6
2022-11-28T15:10:05.830Z,42.4
2022-11-28T15:15:03.222Z,43.3
2022-11-28T15:20:01.179Z,44.5
2022-11-28T15:25:01.527Z,46.3
2022-11-28T15:30:02.858Z,46.9
2022-11-28T15:35:01.190Z,46.7
2022-11-28T15:40:01.581Z,46.3
2022-11-28T15:45:07.849Z,43.7
2022-11-28T15:50:01.741Z,41.2
2022-11-28T15:55:01.581Z,40.0
2022-11-28T16:00:01.662Z,40.2
2022-11-28T16:05:01.521Z,40.6
2022-11-28T16:10:01.256Z,42.0
2022-11-28T16:15:02.544Z,43.2
2022-11-28T16:20:01.556Z,41.1
2022-11-28T16:30:17.467Z,40.5
2022-11-28T16:35:02.798Z,40.2
2022-11-28T16:40:01.569Z,40.5
2022-11-28T16:45:14.393Z,42.0
2022-11-28T16:50:01.550Z,43.9
2022-11-28T16:55:01.529Z,44.6
2022-11-28T17:00:03.484Z,45.8
2022-11-28T17:05:01.437Z,45.0
2022-11-28T17:10:01.550Z,45.5
2022-11-28T17:15:02.534Z,45.3
2022-11-28T17:20:01.553Z,45.5
2022-11-28T17:25:01.551Z,45.2
2022-11-28T17:30:02.778Z,47.7
2022-11-28T17:35:01.237Z,49.1
2022-11-28T17:40:01.634Z,49.0
2022-11-28T17:45:02.186Z,47.7
2022-11-28T17:50:01.523Z,47.8
2022-11-28T17:55:06.268Z,47.3
2022-11-28T18:00:04.453Z,46.3
2022-11-28T18:06:01.555Z,46.6
2022-11-28T18:11:01.515Z,48.2
2022-11-28T18:16:01.543Z,48.0
2022-11-28T18:21:01.525Z,47.2
2022-11-28T18:26:01.515Z,47.4
2022-11-28T18:31:01.565Z,47.1
2022-11-28T18:41:02.051Z,47.4
2022-11-28T18:46:01.645Z,48.0
2022-11-28T18:51:01.546Z,48.1
2022-11-28T18:56:01.407Z,48.6
2022-11-28T19:01:01.610Z,48.7
2022-11-28T19:06:01.544Z,48.3
2022-11-28T19:11:01.520Z,49.0
2022-11-28T19:16:01.622Z,50.0
2022-11-28T19:21:01.553Z,51.3
2022-11-28T19:26:01.537Z,51.8
2022-11-28T19:31:01.540Z,53.6
2022-11-28T19:36:01.550Z,54.4
2022-11-28T19:41:06.613Z,52.4
2022-11-28T19:46:01.592Z,51.5
2022-11-28T19:51:01.523Z,52.4
2022-11-28T19:56:01.481Z,52.0
2022-11-28T20:01:01.404Z,52.4
2022-11-28T20:06:01.366Z,55.6
2022-11-28T20:11:01.254Z,56.0
2022-11-28T20:16:01.288Z,55.8
2022-11-28T20:21:01.270Z,56.9
2022-11-28T20:26:01.427Z,57.5
2022-11-28T20:31:01.423Z,56.8
2022-11-28T20:36:01.353Z,57.0
2022-11-28T20:41:01.516Z,57.2
2022-11-28T20:51:01.364Z,57.3
2022-11-28T20:56:01.160Z,57.4
2022-11-28T21:01:02.902Z,58.3
2022-11-28T21:06:01.807Z,58.8
2022-11-28T21:11:01.560Z,58.5
2022-11-28T21:16:01.651Z,58.2
2022-11-28T21:26:01.589Z,57.6
2022-11-28T21:31:01.538Z,57.1
2022-11-28T21:36:01.558Z,56.2
2022-11-28T21:41:01.557Z,55.9
2022-11-28T21:46:01.615Z,55.3
2022-11-28T21:51:01.604Z,54.2
2022-11-28T21:56:01.741Z,52.6
2022-11-28T22:06:01.622Z,48.8
2022-11-28T22:11:01.579Z,49.0
2022-11-28T22:16:01.740Z,49.3
2022-11-28T22:21:01.570Z,47.4
2022-11-28T22:31:01.563Z,50.7
2022-11-28T22:36:01.536Z,49.9
2022-11-28T22:41:01.608Z,49.3
2022-11-28T22:46:01.594Z,51.6
2022-11-28T22:51:01.739Z,51.9
2022-11-28T22:56:07.193Z,52.1
2022-11-28T23:01:03.597Z,52.7
2022-11-28T23:06:01.537Z,53.4
2022-11-28T23:11:01.647Z,53.9
2022-11-28T23:17:01.515Z,54.4
2022-11-28T23:22:02.031Z,54.1
2022-11-28T23:27:01.834Z,53.8
2022-11-28T23:32:01.566Z,54.4
2022-11-28T23:37:02.031Z,54.7
2022-11-28T23:42:01.509Z,54.2
2022-11-28T23:47:01.606Z,53.8
2022-11-28T23:52:01.529Z,54.6
2022-11-28T23:57:01.516Z,54.4
